Overview Statistics Trail Chart Weather Telemetry Raw packets
 

This is the latest recevied weather packets stored in our database for station/object OM8AGG-15. If no packets are shown the sender has not sent any weather packets the latest 10 day(s).

<< 1 2 3 4 5 >>
Time Temp. Humidity Pressure Rain* Wind** Luminosity Snow
1788578350 17.78° C 62% 1012.9 hPa - - - -
1788577449 17.78° C 61% 1012.5 hPa - - - -
1788576549 17.22° C 63% 1012.6 hPa - - - -
1788575649 18.33° C 60% 1012.3 hPa - - - -
1788574749 18.33° C 59% 1012.4 hPa - - - -
1788573848 18.33° C 59% 1012.7 hPa - - - -
1788572947 17.78° C 62% 1012.5 hPa - - - -
1788572047 17.78° C 62% 1012.4 hPa - - - -
1788571147 17.78° C 60% 1012.4 hPa - - - -
1788570247 18.33° C 59% 1012.2 hPa - - - -
1788569347 18.89° C 57% 1012.1 hPa - - - -
1788568446 19.44° C 55% 1012.3 hPa - - - -
1788567546 18.33° C 57% 1012.4 hPa - - - -
1788566645 20° C 54% 1012.3 hPa - - - -
1788565745 18.89° C 57% 1012.5 hPa - - - -
1788564845 19.44° C 55% 1012.7 hPa - - - -
1788563944 18.89° C 55% 1012.8 hPa - - - -
1788563044 20° C 52% 1013.1 hPa - - - -
1788562143 20° C 51% 1013.3 hPa - - - -
1788561243 20.56° C 51% 1013.4 hPa - - - -
1788560342 20.56° C 50% 1013.6 hPa - - - -
1788559442 20.56° C 51% 1013.8 hPa - - - -
1788558542 20.56° C 50% 1013.8 hPa - - - -
1788557642 21.11° C 49% 1013.9 hPa - - - -
1788556741 21.11° C 49% 1013.9 hPa - - - -

* Rain since midnight (hover to see other rain measurements)
** Current wind speed in m/s (hover to see current wind gust speed)